Time;durP1;ratioP1;P1;durP2;ratioP2;P2;SDS_P1;SDS_P2;PMS_P1;PMS_P2;Temp;Humidity;BMP_temperature;BMP_pressure;BME280_temperature;BME280_humidity;BME280_pressure;Samples;Min_cycle;Max_cycle;Signal;HPM_P1;HPM_P2
2023/12/19 06:00:27;;;;;;;30.90;16.07;;;;;;;;;;6097476;23;20510;31
2023/12/19 06:02:53;;;;;;;35.13;15.23;;;;;;;;;;4898673;29;20502;-73
2023/12/19 06:05:19;;;;;;;32.97;16.03;;;;;;;;;;4899986;29;20450;-73
2023/12/19 06:07:45;;;;;;;28.57;14.30;;;;;;;;;;4899969;29;20400;-73
2023/12/19 06:10:12;;;;;;;37.73;16.60;;;;;;;;;;4899705;29;20411;-72
2023/12/19 06:12:38;;;;;;;38.13;15.93;;;;;;;;;;4899735;29;20493;-74
2023/12/19 06:15:08;;;;;;;32.73;17.00;;;;;;;;;;4899659;29;20402;-75
2023/12/19 06:17:34;;;;;;;35.73;16.70;;;;;;;;;;4897685;29;20421;-75
2023/12/19 06:20:00;;;;;;;30.47;14.60;;;;;;;;;;4899306;29;20410;-74
2023/12/19 06:22:26;;;;;;;32.33;17.50;;;;;;;;;;4899381;29;20432;-75
2023/12/19 06:24:52;;;;;;;39.40;19.27;;;;;;;;;;4899381;29;20514;-74
2023/12/19 06:27:18;;;;;;;26.80;14.97;;;;;;;;;;4898871;29;20422;-73
2023/12/19 06:29:44;;;;;;;33.93;16.60;;;;;;;;;;4899025;29;20419;-74
2023/12/19 06:32:10;;;;;;;34.37;17.20;;;;;;;;;;4898876;29;20974;-72
2023/12/19 06:34:36;;;;;;;34.97;17.70;;;;;;;;;;4899492;29;20430;-74
2023/12/19 06:37:03;;;;;;;33.20;17.13;;;;;;;;;;4902254;29;20499;-74
2023/12/19 06:39:29;;;;;;;30.87;16.30;;;;;;;;;;4899296;29;20474;-73
2023/12/19 06:41:54;;;;;;;30.20;15.33;;;;;;;;;;4897298;29;21019;-75
2023/12/19 06:44:21;;;;;;;29.87;15.80;;;;;;;;;;4900530;29;20490;-73
2023/12/19 06:46:49;;;;;;;32.60;15.40;;;;;;;;;;4897993;29;20411;-75
2023/12/19 06:49:27;;;;;;;28.60;13.90;;;;;;;;;;4898874;29;20411;-74
2023/12/19 06:52:05;;;;;;;26.90;14.20;;;;;;;;;;4899433;29;20469;-75
2023/12/19 06:54:32;;;;;;;31.90;15.70;;;;;;;;;;4899177;29;20763;-74
2023/12/19 06:56:58;;;;;;;28.10;15.90;;;;;;;;;;4899254;29;20422;-74
2023/12/19 06:59:24;;;;;;;31.50;15.67;;;;;;;;;;4901743;29;20514;-72
2023/12/19 07:01:50;;;;;;;33.97;17.43;;;;;;;;;;4901678;29;20488;-74
2023/12/19 07:04:16;;;;;;;23.30;13.57;;;;;;;;;;4900688;29;20869;-73
2023/12/19 07:06:42;;;;;;;32.00;16.47;;;;;;;;;;4900990;29;20419;-73
2023/12/19 07:09:08;;;;;;;28.93;17.10;;;;;;;;;;4903820;29;20499;-73
2023/12/19 07:11:34;;;;;;;40.53;16.27;;;;;;;;;;4905080;29;21006;-72
2023/12/19 07:14:04;;;;;;;33.40;15.93;;;;;;;;;;4908262;29;20418;-72
2023/12/19 07:16:30;;;;;;;30.67;14.10;;;;;;;;;;4908859;29;20520;-71
2023/12/19 07:18:56;;;;;;;29.97;16.23;;;;;;;;;;4907823;29;20427;-73
2023/12/19 07:21:22;;;;;;;28.43;16.37;;;;;;;;;;4905525;29;21018;-74
2023/12/19 07:23:50;;;;;;;32.30;15.20;;;;;;;;;;4901558;29;20420;-73
2023/12/19 07:26:34;;;;;;;25.90;14.33;;;;;;;;;;4900881;29;20415;-74
2023/12/19 07:29:00;;;;;;;42.80;19.10;;;;;;;;;;4899508;29;20422;-74
2023/12/19 07:31:27;;;;;;;39.07;18.47;;;;;;;;;;4900835;29;20438;-74
2023/12/19 07:34:01;;;;;;;32.43;16.63;;;;;;;;;;4901651;29;20933;-73
2023/12/19 07:36:28;;;;;;;33.47;16.43;;;;;;;;;;4901887;29;20921;-74
2023/12/19 07:38:54;;;;;;;30.10;17.80;;;;;;;;;;4901448;29;20427;-74
2023/12/19 07:41:20;;;;;;;25.50;14.10;;;;;;;;;;4899166;29;20845;-75
2023/12/19 07:43:47;;;;;;;30.30;15.87;;;;;;;;;;4899050;29;20472;-74
2023/12/19 07:46:14;;;;;;;34.47;15.70;;;;;;;;;;4899311;29;20406;-74
2023/12/19 07:48:40;;;;;;;38.37;17.53;;;;;;;;;;4899252;29;20421;-74
2023/12/19 07:51:06;;;;;;;33.23;15.63;;;;;;;;;;4899575;29;20437;-74
2023/12/19 07:53:32;;;;;;;34.37;16.67;;;;;;;;;;4907428;29;20428;-74
2023/12/19 07:55:59;;;;;;;33.03;15.27;;;;;;;;;;4907981;29;20489;-74
2023/12/19 07:58:26;;;;;;;26.93;15.97;;;;;;;;;;4904101;29;20415;-74
2023/12/19 08:00:52;;;;;;;29.30;16.97;;;;;;;;;;4897601;29;20516;-73
2023/12/19 08:03:18;;;;;;;30.03;15.63;;;;;;;;;;4898311;29;20419;-73
2023/12/19 08:05:53;;;;;;;25.70;15.50;;;;;;;;;;4898261;29;20808;-75
2023/12/19 08:08:20;;;;;;;31.77;17.80;;;;;;;;;;4897936;29;20445;-74
2023/12/19 08:10:46;;;;;;;37.63;18.50;;;;;;;;;;4897753;29;20538;-74
2023/12/19 08:13:12;;;;;;;33.20;16.97;;;;;;;;;;4897995;29;20816;-74
2023/12/19 08:15:40;;;;;;;35.63;16.33;;;;;;;;;;4898002;29;20414;-74
2023/12/19 08:18:06;;;;;;;32.67;15.77;;;;;;;;;;4900684;29;20502;-74
2023/12/19 08:20:33;;;;;;;33.47;15.80;;;;;;;;;;4901991;29;20631;-74
2023/12/19 08:22:59;;;;;;;27.33;14.90;;;;;;;;;;4901389;29;20967;-75
2023/12/19 08:25:25;;;;;;;35.60;16.43;;;;;;;;;;4900971;29;20900;-75
2023/12/19 08:27:51;;;;;;;37.23;16.53;;;;;;;;;;4899271;29;20423;-75
2023/12/19 08:30:17;;;;;;;26.07;13.80;;;;;;;;;;4900813;29;20419;-75
2023/12/19 08:32:43;;;;;;;24.83;13.17;;;;;;;;;;4901332;29;20415;-74
2023/12/19 08:35:09;;;;;;;25.07;15.07;;;;;;;;;;4901487;29;20430;-74
2023/12/19 08:37:36;;;;;;;33.90;15.73;;;;;;;;;;4901684;29;20420;-76
2023/12/19 08:40:03;;;;;;;30.83;14.17;;;;;;;;;;4900871;29;20805;-75
2023/12/19 08:42:29;;;;;;;28.00;13.93;;;;;;;;;;4900277;29;20899;-75
2023/12/19 08:44:55;;;;;;;27.27;13.87;;;;;;;;;;4904111;29;20416;-74
2023/12/19 08:47:22;;;;;;;25.00;12.30;;;;;;;;;;4901671;29;20451;-74
2023/12/19 08:49:52;;;;;;;31.53;12.50;;;;;;;;;;4902143;29;20416;-76
2023/12/19 08:52:18;;;;;;;31.80;14.47;;;;;;;;;;4901599;29;20423;-75
2023/12/19 08:54:44;;;;;;;22.93;12.23;;;;;;;;;;4901478;29;20415;-76
2023/12/19 08:57:10;;;;;;;23.17;11.77;;;;;;;;;;4901132;29;20427;-76
2023/12/19 08:59:36;;;;;;;32.73;13.50;;;;;;;;;;4901783;29;20427;-75
2023/12/19 09:02:04;;;;;;;31.60;14.90;;;;;;;;;;4899709;29;20597;-76
2023/12/19 09:04:30;;;;;;;30.83;15.03;;;;;;;;;;4902084;29;20411;-76
2023/12/19 09:06:56;;;;;;;24.33;11.47;;;;;;;;;;4902165;29;20407;-76
2023/12/19 09:09:22;;;;;;;29.60;13.03;;;;;;;;;;4901166;29;20407;-76
2023/12/19 09:11:48;;;;;;;22.97;11.40;;;;;;;;;;4901155;29;20435;-74
2023/12/19 09:14:15;;;;;;;18.07;10.07;;;;;;;;;;4901977;29;20479;-75
2023/12/19 09:16:42;;;;;;;22.60;12.40;;;;;;;;;;4907556;29;20507;-74
2023/12/19 09:19:08;;;;;;;23.33;11.90;;;;;;;;;;4901727;29;20592;-76
2023/12/19 09:21:34;;;;;;;19.73;11.60;;;;;;;;;;4900850;29;20562;-75
2023/12/19 09:24:00;;;;;;;22.60;12.37;;;;;;;;;;4899900;29;20419;-74
2023/12/19 09:26:27;;;;;;;17.67;11.30;;;;;;;;;;4900776;29;20509;-76
2023/12/19 09:28:55;;;;;;;23.57;12.93;;;;;;;;;;4900021;29;20487;-75
2023/12/19 09:31:21;;;;;;;21.93;11.47;;;;;;;;;;4900674;29;20431;-74
2023/12/19 09:33:48;;;;;;;27.27;12.40;;;;;;;;;;4900696;29;20450;-76
2023/12/19 09:36:26;;;;;;;23.30;11.57;;;;;;;;;;4900573;29;20424;-76
2023/12/19 09:38:52;;;;;;;20.80;12.27;;;;;;;;;;4900419;29;20872;-76
2023/12/19 09:41:18;;;;;;;18.03;11.90;;;;;;;;;;4899932;29;20467;-76
2023/12/19 09:43:45;;;;;;;25.07;12.47;;;;;;;;;;4900361;29;20899;-76
2023/12/19 09:46:13;;;;;;;25.00;12.27;;;;;;;;;;4900702;29;20447;-76
2023/12/19 09:48:39;;;;;;;26.53;12.33;;;;;;;;;;4900324;29;20415;-75
2023/12/19 09:51:05;;;;;;;27.40;12.00;;;;;;;;;;4900286;29;20431;-76
2023/12/19 09:53:32;;;;;;;25.03;12.60;;;;;;;;;;4900409;29;20414;-75
2023/12/19 09:55:58;;;;;;;26.83;13.93;;;;;;;;;;4900613;29;20790;-74
2023/12/19 09:58:25;;;;;;;31.53;16.53;;;;;;;;;;4900027;29;20515;-74
2023/12/19 10:00:52;;;;;;;29.23;14.97;;;;;;;;;;4899547;29;20475;-76
2023/12/19 10:03:18;;;;;;;29.40;14.50;;;;;;;;;;4900415;29;20415;-76
2023/12/19 10:05:45;;;;;;;25.40;13.20;;;;;;;;;;4906917;29;20483;-73
2023/12/19 10:08:11;;;;;;;26.87;14.60;;;;;;;;;;4917593;29;20412;-75
2023/12/19 10:10:53;;;;;;;23.80;13.60;;;;;;;;;;4919756;29;20427;-73
2023/12/19 10:13:30;;;;;;;32.50;14.90;;;;;;;;;;4921184;29;20407;-74
2023/12/19 10:15:59;;;;;;;23.10;12.70;;;;;;;;;;4920086;29;20423;-73
2023/12/19 10:18:25;;;;;;;25.93;13.77;;;;;;;;;;4919630;29;20444;-74
2023/12/19 10:21:03;;;;;;;28.37;14.13;;;;;;;;;;4917996;29;20467;-74
2023/12/19 10:23:29;;;;;;;25.87;12.73;;;;;;;;;;4912880;29;20419;-75
2023/12/19 10:25:55;;;;;;;29.43;14.03;;;;;;;;;;4900190;29;20539;-75
2023/12/19 10:28:21;;;;;;;35.03;15.10;;;;;;;;;;4899281;29;20419;-76
2023/12/19 10:30:47;;;;;;;28.40;15.20;;;;;;;;;;4898069;29;20459;-75
2023/12/19 10:33:14;;;;;;;25.73;14.73;;;;;;;;;;4899067;29;20428;-75
2023/12/19 10:35:44;;;;;;;25.83;13.90;;;;;;;;;;4899270;29;20419;-75
2023/12/19 10:38:10;;;;;;;27.80;14.70;;;;;;;;;;4898966;29;20415;-75
2023/12/19 10:40:36;;;;;;;32.90;15.47;;;;;;;;;;4897814;29;20791;-76
2023/12/19 10:43:02;;;;;;;24.20;13.10;;;;;;;;;;4899414;29;20449;-75
2023/12/19 10:45:29;;;;;;;29.00;14.20;;;;;;;;;;4899437;29;20422;-75
2023/12/19 10:47:54;;;;;;;26.90;13.23;;;;;;;;;;4899480;29;20491;-74
2023/12/19 10:50:21;;;;;;;29.83;14.00;;;;;;;;;;4900630;29;20462;-74
2023/12/19 10:52:52;;;;;;;30.30;13.77;;;;;;;;;;4900296;29;20775;-75
2023/12/19 10:55:21;;;;;;;33.97;14.07;;;;;;;;;;4904180;29;20415;-75
2023/12/19 10:57:48;;;;;;;28.80;13.57;;;;;;;;;;4901407;29;20419;-74
2023/12/19 11:00:23;;;;;;;30.10;14.93;;;;;;;;;;4901145;29;20455;-75
2023/12/19 11:02:57;;;;;;;26.90;13.70;;;;;;;;;;4901970;29;20403;-74
2023/12/19 11:05:32;;;;;;;29.23;13.97;;;;;;;;;;4899659;29;20407;-73
2023/12/19 11:08:02;;;;;;;28.17;12.90;;;;;;;;;;4899602;29;20407;-76
2023/12/19 11:10:30;;;;;;;25.10;11.97;;;;;;;;;;4897676;29;20829;-74
2023/12/19 11:12:56;;;;;;;24.70;13.50;;;;;;;;;;4899416;29;20408;-74
2023/12/19 11:15:24;;;;;;;24.80;13.60;;;;;;;;;;4900983;29;20438;-74
2023/12/19 11:17:54;;;;;;;30.27;13.37;;;;;;;;;;4909953;29;20408;-75
2023/12/19 11:20:21;;;;;;;23.50;12.93;;;;;;;;;;4907319;29;20414;-75
2023/12/19 11:23:01;;;;;;;25.70;12.80;;;;;;;;;;4909242;29;20499;-74
2023/12/19 11:25:33;;;;;;;21.60;12.47;;;;;;;;;;4909486;29;20415;-75
2023/12/19 11:28:03;;;;;;;28.50;13.40;;;;;;;;;;4911217;29;20412;-75
2023/12/19 11:30:36;;;;;;;29.00;13.20;;;;;;;;;;4916529;29;20431;-75
2023/12/19 11:33:03;;;;;;;24.30;12.33;;;;;;;;;;4912317;29;20420;-75
2023/12/19 11:35:30;;;;;;;18.90;10.40;;;;;;;;;;4910385;29;20523;-75
2023/12/19 11:38:25;;;;;;;25.37;12.33;;;;;;;;;;4911178;29;20483;-73
2023/12/19 11:40:53;;;;;;;29.53;13.50;;;;;;;;;;4899640;29;20522;-75
2023/12/19 11:43:39;;;;;;;23.27;12.10;;;;;;;;;;4902928;29;20482;-74
2023/12/19 11:46:06;;;;;;;26.23;13.03;;;;;;;;;;4910690;29;20419;-73
2023/12/19 11:48:58;;;;;;;27.03;12.10;;;;;;;;;;4911005;29;20416;-73
2023/12/19 11:51:45;;;;;;;35.23;13.00;;;;;;;;;;4898496;29;20462;-73
2023/12/19 11:54:13;;;;;;;21.30;11.30;;;;;;;;;;4897232;29;20422;-75
2023/12/19 11:56:39;;;;;;;25.03;12.13;;;;;;;;;;4897842;29;20416;-74
2023/12/19 11:59:06;;;;;;;19.60;11.10;;;;;;;;;;4897606;29;20416;-75
2023/12/19 12:01:42;;;;;;;22.03;11.13;;;;;;;;;;4897402;29;20471;-75
2023/12/19 12:04:10;;;;;;;23.57;11.50;;;;;;;;;;4897703;29;20475;-74
2023/12/19 12:06:37;;;;;;;19.90;11.27;;;;;;;;;;4897400;29;20922;-75
2023/12/19 12:09:05;;;;;;;21.70;11.27;;;;;;;;;;4897623;29;20431;-74
2023/12/19 12:11:45;;;;;;;18.40;10.33;;;;;;;;;;4897177;29;20499;-76
2023/12/19 12:14:11;;;;;;;17.40;10.40;;;;;;;;;;4972270;23;20547;-75
2023/12/19 12:16:37;;;;;;;24.63;11.73;;;;;;;;;;5013699;28;20822;-75
2023/12/19 12:19:10;;;;;;;20.17;10.87;;;;;;;;;;5014898;28;20827;-75
2023/12/19 12:21:36;;;;;;;28.30;11.27;;;;;;;;;;5011353;28;20973;-76
2023/12/19 12:24:02;;;;;;;21.97;11.27;;;;;;;;;;5003960;28;20517;-76
2023/12/19 12:26:28;;;;;;;19.20;10.00;;;;;;;;;;4990666;28;20505;-76
2023/12/19 12:28:54;;;;;;;20.63;10.83;;;;;;;;;;4992026;28;20453;-77
2023/12/19 12:31:20;;;;;;;17.00;9.77;;;;;;;;;;4991854;28;20411;-76
2023/12/19 12:33:46;;;;;;;24.07;10.43;;;;;;;;;;4991839;28;20458;-76
2023/12/19 12:36:13;;;;;;;19.67;9.40;;;;;;;;;;4990480;28;20430;-77
2023/12/19 12:38:39;;;;;;;18.83;11.47;;;;;;;;;;4991866;28;20581;-77
2023/12/19 12:41:06;;;;;;;20.00;9.20;;;;;;;;;;4991627;28;20550;-77
2023/12/19 12:43:39;;;;;;;17.90;9.57;;;;;;;;;;4991880;28;20453;-77
2023/12/19 12:46:09;;;;;;;19.03;10.60;;;;;;;;;;5007110;28;20974;-77
2023/12/19 12:48:39;;;;;;;20.87;10.50;;;;;;;;;;4991838;28;20399;-76
2023/12/19 12:51:05;;;;;;;21.87;9.60;;;;;;;;;;4991551;28;20801;-77
2023/12/19 12:53:33;;;;;;;25.00;10.90;;;;;;;;;;4991765;28;20960;-76
2023/12/19 12:56:06;;;;;;;21.20;11.20;;;;;;;;;;4991733;28;20461;-77
2023/12/19 12:58:32;;;;;;;22.17;11.07;;;;;;;;;;4991735;28;20407;-77
2023/12/19 13:00:59;;;;;;;23.93;10.17;;;;;;;;;;4991501;28;20957;-77
2023/12/19 13:03:24;;;;;;;25.23;11.30;;;;;;;;;;4991835;28;20454;-78
2023/12/19 13:05:50;;;;;;;17.67;9.67;;;;;;;;;;4995178;28;20918;-77
2023/12/19 13:08:16;;;;;;;21.90;10.60;;;;;;;;;;4995325;28;20974;-77
2023/12/19 13:10:42;;;;;;;22.47;11.37;;;;;;;;;;4995065;28;20960;-77
2023/12/19 13:13:08;;;;;;;20.57;9.80;;;;;;;;;;4995142;28;20938;-77
2023/12/19 13:15:34;;;;;;;17.80;9.53;;;;;;;;;;4995159;28;21022;-77
2023/12/19 13:18:00;;;;;;;23.67;11.00;;;;;;;;;;4995002;28;20406;-76
2023/12/19 13:20:26;;;;;;;20.03;9.83;;;;;;;;;;4993494;28;20419;-76
2023/12/19 13:22:52;;;;;;;18.03;9.90;;;;;;;;;;4995263;28;20492;-78
2023/12/19 13:25:18;;;;;;;19.07;10.07;;;;;;;;;;4994850;28;20491;-77
2023/12/19 13:27:44;;;;;;;17.47;10.77;;;;;;;;;;4994904;28;20585;-77
2023/12/19 13:30:12;;;;;;;22.77;11.00;;;;;;;;;;4994848;28;20414;-76
2023/12/19 13:32:41;;;;;;;23.40;11.00;;;;;;;;;;4994634;28;20421;-75
2023/12/19 13:35:08;;;;;;;23.50;11.43;;;;;;;;;;4993314;28;20446;-76
2023/12/19 13:37:34;;;;;;;23.27;11.43;;;;;;;;;;4993538;28;20934;-76
2023/12/19 13:40:00;;;;;;;19.60;10.57;;;;;;;;;;4993761;28;20435;-76
2023/12/19 13:42:26;;;;;;;20.17;10.30;;;;;;;;;;4994334;28;20474;-76
2023/12/19 13:44:52;;;;;;;23.37;11.07;;;;;;;;;;4993147;28;20958;-76
2023/12/19 13:47:18;;;;;;;19.53;11.20;;;;;;;;;;4995011;28;20433;-76
2023/12/19 13:49:44;;;;;;;23.13;10.10;;;;;;;;;;4994657;28;20895;-76
2023/12/19 13:52:10;;;;;;;16.03;8.80;;;;;;;;;;4993228;28;20486;-76
2023/12/19 13:54:36;;;;;;;20.10;10.13;;;;;;;;;;4994475;28;20430;-76
2023/12/19 13:57:02;;;;;;;19.60;10.20;;;;;;;;;;4994644;28;20449;-76
2023/12/19 13:59:29;;;;;;;19.60;9.43;;;;;;;;;;4994603;28;20490;-77
2023/12/19 14:01:55;;;;;;;17.53;10.43;;;;;;;;;;5009032;28;20478;-77
2023/12/19 14:04:21;;;;;;;19.10;9.90;;;;;;;;;;4994258;28;20435;-77
2023/12/19 14:06:47;;;;;;;23.90;10.30;;;;;;;;;;4994481;28;20774;-77
2023/12/19 14:09:18;;;;;;;17.50;8.90;;;;;;;;;;4993027;28;20415;-77
2023/12/19 14:11:45;;;;;;;20.37;10.37;;;;;;;;;;4994395;28;20415;-77
2023/12/19 14:14:11;;;;;;;15.93;9.50;;;;;;;;;;4993714;28;20937;-77
2023/12/19 14:16:37;;;;;;;21.77;10.13;;;;;;;;;;4993903;28;20419;-76
2023/12/19 14:19:04;;;;;;;14.93;8.23;;;;;;;;;;4994074;28;20463;-77
2023/12/19 14:21:30;;;;;;;14.70;8.47;;;;;;;;;;4994002;28;20508;-76
2023/12/19 14:23:55;;;;;;;18.23;9.20;;;;;;;;;;5009226;28;20505;-77
2023/12/19 14:26:21;;;;;;;18.57;8.93;;;;;;;;;;4993905;28;20714;-76
2023/12/19 14:28:47;;;;;;;20.07;10.13;;;;;;;;;;4993988;28;20431;-76
2023/12/19 14:31:16;;;;;;;19.47;10.60;;;;;;;;;;4993548;28;20418;-76
2023/12/19 14:33:42;;;;;;;15.90;8.80;;;;;;;;;;4993680;28;20462;-76
2023/12/19 14:36:08;;;;;;;22.83;12.60;;;;;;;;;;4993898;28;20473;-77
2023/12/19 14:38:40;;;;;;;20.40;9.87;;;;;;;;;;4993753;28;20426;-77
2023/12/19 14:41:06;;;;;;;19.23;10.20;;;;;;;;;;4993713;28;20482;-76
2023/12/19 14:43:32;;;;;;;20.30;10.67;;;;;;;;;;4993646;28;20953;-76
2023/12/19 14:45:58;;;;;;;21.53;10.20;;;;;;;;;;4993325;28;20414;-75
2023/12/19 14:48:24;;;;;;;18.20;9.53;;;;;;;;;;4991985;28;20493;-75
2023/12/19 14:50:53;;;;;;;25.20;10.70;;;;;;;;;;4993421;28;20895;-76
2023/12/19 14:53:19;;;;;;;23.53;10.37;;;;;;;;;;4993185;28;20415;-77
2023/12/19 14:55:45;;;;;;;17.37;10.50;;;;;;;;;;4993516;28;20437;-77
2023/12/19 14:58:11;;;;;;;17.43;9.30;;;;;;;;;;4993026;28;20514;-77
2023/12/19 15:00:37;;;;;;;19.47;9.50;;;;;;;;;;4992883;28;20454;-77
2023/12/19 15:03:04;;;;;;;21.50;10.60;;;;;;;;;;4993124;28;20845;-77
2023/12/19 15:05:30;;;;;;;21.60;10.57;;;;;;;;;;4993353;28;20411;-77
2023/12/19 15:07:56;;;;;;;29.47;11.67;;;;;;;;;;4992890;28;20415;-77
2023/12/19 15:10:22;;;;;;;22.53;9.63;;;;;;;;;;4992652;28;20430;-77
2023/12/19 15:12:49;;;;;;;18.33;9.83;;;;;;;;;;4992803;28;20403;-77
2023/12/19 15:15:15;;;;;;;21.47;10.73;;;;;;;;;;4992426;28;20451;-78
2023/12/19 15:17:41;;;;;;;26.00;11.57;;;;;;;;;;4992176;28;20426;-74
2023/12/19 15:20:10;;;;;;;20.90;10.23;;;;;;;;;;4992932;28;20443;-72
2023/12/19 15:22:37;;;;;;;21.00;10.17;;;;;;;;;;4992588;28;20462;-74
2023/12/19 15:25:04;;;;;;;21.97;11.07;;;;;;;;;;4992621;28;20517;-74
2023/12/19 15:27:31;;;;;;;26.57;12.50;;;;;;;;;;4992012;28;20407;-73
2023/12/19 15:29:57;;;;;;;23.37;10.30;;;;;;;;;;4992792;28;20429;-72
2023/12/19 15:32:22;;;;;;;24.00;11.67;;;;;;;;;;4992732;28;20605;-73
2023/12/19 15:34:48;;;;;;;21.17;12.33;;;;;;;;;;4993098;28;20452;-73
2023/12/19 15:37:14;;;;;;;23.67;11.60;;;;;;;;;;4990935;28;20434;-73
2023/12/19 15:39:41;;;;;;;22.07;10.80;;;;;;;;;;4984843;28;20423;-73
2023/12/19 15:42:07;;;;;;;17.53;10.23;;;;;;;;;;4980107;28;20467;-72
2023/12/19 15:44:33;;;;;;;21.00;10.17;;;;;;;;;;4973096;28;20845;-74
2023/12/19 15:46:59;;;;;;;20.53;11.47;;;;;;;;;;4973168;28;20430;-72
2023/12/19 15:49:25;;;;;;;20.30;10.97;;;;;;;;;;4975742;28;20795;-75
2023/12/19 15:51:51;;;;;;;18.77;10.53;;;;;;;;;;4983732;28;20423;-76
2023/12/19 15:54:17;;;;;;;22.17;10.73;;;;;;;;;;4991760;28;21009;-76
2023/12/19 15:56:44;;;;;;;16.50;9.50;;;;;;;;;;4991579;28;20411;-76
2023/12/19 15:59:10;;;;;;;25.80;11.80;;;;;;;;;;4992203;28;20407;-75
2023/12/19 16:01:37;;;;;;;19.10;10.50;;;;;;;;;;4984491;28;20467;-75
2023/12/19 16:04:03;;;;;;;23.97;12.63;;;;;;;;;;4971723;28;20432;-75
2023/12/19 16:06:30;;;;;;;21.53;11.20;;;;;;;;;;4972871;28;20423;-75
2023/12/19 16:08:56;;;;;;;20.70;10.03;;;;;;;;;;4973325;28;20424;-77
2023/12/19 16:11:27;;;;;;;24.27;9.90;;;;;;;;;;4983816;28;20415;-76
2023/12/19 16:13:54;;;;;;;19.37;10.83;;;;;;;;;;4983362;28;20497;-75
2023/12/19 16:16:21;;;;;;;21.63;11.50;;;;;;;;;;4987078;28;20419;-76
2023/12/19 16:18:47;;;;;;;28.73;11.53;;;;;;;;;;4980515;28;20771;-76
2023/12/19 16:21:14;;;;;;;23.23;12.00;;;;;;;;;;4981454;28;20526;-76
2023/12/19 16:23:40;;;;;;;21.77;11.43;;;;;;;;;;4975503;28;20451;-75
2023/12/19 16:26:07;;;;;;;21.50;11.50;;;;;;;;;;4972779;28;20408;-75
2023/12/19 16:28:34;;;;;;;27.07;12.30;;;;;;;;;;4971110;28;20991;-75
2023/12/19 16:31:00;;;;;;;26.07;12.00;;;;;;;;;;4984752;28;20511;-76
2023/12/19 16:33:26;;;;;;;21.13;10.97;;;;;;;;;;4971497;28;20595;-75
2023/12/19 16:35:52;;;;;;;20.90;11.20;;;;;;;;;;4982538;28;20423;-76
2023/12/19 16:38:18;;;;;;;29.43;11.90;;;;;;;;;;4993683;28;20415;-74
2023/12/19 16:40:48;;;;;;;17.53;10.80;;;;;;;;;;4985242;28;20517;-75
2023/12/19 16:43:18;;;;;;;22.20;10.30;;;;;;;;;;4976463;28;20495;-75
2023/12/19 16:45:44;;;;;;;22.30;11.37;;;;;;;;;;4976332;28;20535;-75
2023/12/19 16:48:10;;;;;;;27.77;13.07;;;;;;;;;;4988051;28;20851;-74
2023/12/19 16:50:35;;;;;;;26.50;12.00;;;;;;;;;;4992340;28;20764;-72
2023/12/19 16:53:01;;;;;;;21.27;10.60;;;;;;;;;;4991459;28;20505;-73
2023/12/19 16:55:27;;;;;;;22.87;11.13;;;;;;;;;;4978372;28;20436;-72
2023/12/19 16:57:53;;;;;;;19.10;11.00;;;;;;;;;;4977993;28;20416;-72
2023/12/19 17:00:19;;;;;;;23.57;12.00;;;;;;;;;;4976172;28;20419;-73
2023/12/19 17:02:46;;;;;;;24.40;12.17;;;;;;;;;;4976113;28;21005;-73
2023/12/19 17:05:12;;;;;;;21.97;11.33;;;;;;;;;;4977170;28;20443;-73
2023/12/19 17:07:38;;;;;;;23.40;11.23;;;;;;;;;;4976294;28;20404;-72
2023/12/19 17:10:04;;;;;;;26.03;12.00;;;;;;;;;;4994602;28;20415;-73
2023/12/19 17:12:30;;;;;;;23.60;12.40;;;;;;;;;;4984912;28;20423;-73
2023/12/19 17:14:56;;;;;;;34.70;11.63;;;;;;;;;;4992170;28;20473;-75
2023/12/19 17:17:22;;;;;;;25.47;13.07;;;;;;;;;;4976007;28;20420;-73
2023/12/19 17:19:48;;;;;;;28.73;12.90;;;;;;;;;;4990556;28;20442;-73
2023/12/19 17:22:14;;;;;;;28.37;11.60;;;;;;;;;;4976037;28;20471;-73
2023/12/19 17:24:40;;;;;;;22.33;12.60;;;;;;;;;;4976269;28;20740;-72
2023/12/19 17:27:06;;;;;;;24.97;12.20;;;;;;;;;;4975519;28;20430;-72
2023/12/19 17:29:32;;;;;;;22.67;11.50;;;;;;;;;;4976260;28;20491;-73
2023/12/19 17:31:58;;;;;;;27.20;13.50;;;;;;;;;;4994143;28;20423;-72
2023/12/19 17:34:24;;;;;;;28.67;12.07;;;;;;;;;;4994099;28;20482;-72
2023/12/19 17:36:50;;;;;;;21.87;11.93;;;;;;;;;;4991514;28;20426;-73
2023/12/19 17:39:16;;;;;;;29.30;14.43;;;;;;;;;;4994510;28;20827;-72
2023/12/19 17:41:41;;;;;;;25.57;12.63;;;;;;;;;;4976252;28;20974;-72
2023/12/19 17:44:08;;;;;;;34.07;14.00;;;;;;;;;;4986281;28;20927;-73
2023/12/19 17:46:34;;;;;;;27.30;12.00;;;;;;;;;;4993825;28;20423;-77
2023/12/19 17:49:00;;;;;;;23.50;12.67;;;;;;;;;;4987325;28;20412;-74
2023/12/19 17:51:26;;;;;;;26.30;12.10;;;;;;;;;;4985061;28;20918;-75
2023/12/19 17:53:51;;;;;;;25.00;12.30;;;;;;;;;;4992888;28;20492;-74
2023/12/19 17:56:19;;;;;;;21.53;11.50;;;;;;;;;;4980944;28;20419;-74
2023/12/19 17:58:45;;;;;;;21.93;12.40;;;;;;;;;;4984954;28;20419;-75
2023/12/19 18:01:11;;;;;;;25.77;13.27;;;;;;;;;;4993243;28;20470;-75
2023/12/19 18:03:37;;;;;;;25.20;12.87;;;;;;;;;;4994092;28;20446;-75
2023/12/19 18:06:03;;;;;;;28.43;14.53;;;;;;;;;;4989873;28;20412;-72
2023/12/19 18:08:31;;;;;;;31.87;16.43;;;;;;;;;;4994114;28;20775;-72
2023/12/19 18:10:57;;;;;;;27.63;13.57;;;;;;;;;;4990766;28;20435;-73
2023/12/19 18:13:23;;;;;;;27.43;12.30;;;;;;;;;;4975025;28;20935;-76
2023/12/19 18:15:49;;;;;;;26.63;12.90;;;;;;;;;;4983890;28;20415;-75
2023/12/19 18:18:18;;;;;;;24.80;12.03;;;;;;;;;;4975854;28;20423;-75
2023/12/19 18:20:48;;;;;;;21.13;11.57;;;;;;;;;;4977800;28;20420;-72
2023/12/19 18:23:14;;;;;;;30.13;13.70;;;;;;;;;;4983113;28;20477;-75
2023/12/19 18:25:40;;;;;;;24.37;13.17;;;;;;;;;;4990606;28;20190;-74
2023/12/19 18:28:06;;;;;;;25.10;12.50;;;;;;;;;;4987835;28;20803;-75
2023/12/19 18:30:32;;;;;;;23.87;11.40;;;;;;;;;;4993995;28;20414;-76
2023/12/19 18:33:01;;;;;;;27.00;13.77;;;;;;;;;;4996203;28;20518;-76
2023/12/19 18:35:27;;;;;;;26.93;12.87;;;;;;;;;;4987169;28;20440;-77
2023/12/19 18:37:54;;;;;;;22.70;12.00;;;;;;;;;;4986563;28;20708;-77
2023/12/19 18:40:20;;;;;;;30.97;11.67;;;;;;;;;;4990851;28;21172;-78
2023/12/19 18:42:49;;;;;;;22.20;11.97;;;;;;;;;;4991045;28;20471;-77
2023/12/19 18:45:15;;;;;;;26.80;10.93;;;;;;;;;;4993116;28;20432;-77
2023/12/19 18:47:41;;;;;;;23.00;12.10;;;;;;;;;;4998371;28;20447;-77
2023/12/19 18:50:07;;;;;;;30.60;11.93;;;;;;;;;;4986002;28;20764;-75
2023/12/19 18:52:33;;;;;;;20.37;10.73;;;;;;;;;;4984143;28;20883;-74
2023/12/19 18:54:59;;;;;;;23.63;11.30;;;;;;;;;;4985652;28;20442;-74
2023/12/19 18:57:25;;;;;;;27.53;12.80;;;;;;;;;;4988270;28;20937;-75
2023/12/19 18:59:51;;;;;;;23.87;11.80;;;;;;;;;;4988658;28;20430;-75
2023/12/19 19:02:17;;;;;;;27.23;12.30;;;;;;;;;;4983277;28;20529;-74
2023/12/19 19:04:43;;;;;;;27.07;12.50;;;;;;;;;;4986179;28;20435;-75
2023/12/19 19:07:09;;;;;;;24.77;12.73;;;;;;;;;;4985526;28;20423;-75
2023/12/19 19:09:35;;;;;;;25.23;13.23;;;;;;;;;;4993126;28;20415;-76
2023/12/19 19:12:03;;;;;;;19.93;10.83;;;;;;;;;;4992596;28;20502;-75
2023/12/19 19:14:29;;;;;;;25.03;12.77;;;;;;;;;;4986131;28;20462;-76
2023/12/19 19:16:54;;;;;;;25.87;12.20;;;;;;;;;;4991198;28;20426;-75
2023/12/19 19:19:20;;;;;;;20.90;11.83;;;;;;;;;;4987171;28;20455;-74
2023/12/19 19:21:46;;;;;;;25.10;12.90;;;;;;;;;;4992683;28;20455;-75
2023/12/19 19:24:13;;;;;;;28.50;13.30;;;;;;;;;;4991985;28;20431;-75
2023/12/19 19:26:39;;;;;;;26.77;13.70;;;;;;;;;;4989592;28;20408;-77
2023/12/19 19:29:07;;;;;;;29.00;12.50;;;;;;;;;;4989971;28;20759;-75
2023/12/19 19:31:33;;;;;;;24.43;13.73;;;;;;;;;;4987797;28;20449;-73
2023/12/19 19:34:00;;;;;;;21.80;12.30;;;;;;;;;;4992848;28;20443;-73
2023/12/19 19:36:27;;;;;;;29.67;14.70;;;;;;;;;;4992908;28;20502;-76
2023/12/19 19:38:53;;;;;;;25.73;14.17;;;;;;;;;;4993408;28;20422;-73
2023/12/19 19:41:21;;;;;;;27.03;13.90;;;;;;;;;;4994616;28;20463;-72
2023/12/19 19:43:47;;;;;;;30.03;13.57;;;;;;;;;;4992752;28;20914;-76
2023/12/19 19:46:13;;;;;;;23.00;12.47;;;;;;;;;;4992318;28;20426;-74
2023/12/19 19:48:39;;;;;;;28.53;14.03;;;;;;;;;;4993254;28;21806;-77
2023/12/19 19:51:06;;;;;;;32.13;15.50;;;;;;;;;;4987835;28;20896;-76
2023/12/19 19:53:34;;;;;;;27.33;13.90;;;;;;;;;;4985344;28;20435;-78
2023/12/19 19:56:00;;;;;;;32.60;14.87;;;;;;;;;;4986654;28;20513;-78
2023/12/19 19:58:26;;;;;;;28.90;15.07;;;;;;;;;;4986997;28;20447;-83
2023/12/19 20:00:53;;;;;;;31.40;15.70;;;;;;;;;;4992538;28;20466;-79
2023/12/19 20:03:19;;;;;;;28.10;13.60;;;;;;;;;;4986231;28;20411;-78
2023/12/19 20:05:45;;;;;;;24.87;13.77;;;;;;;;;;4991074;28;20447;-76
2023/12/19 20:08:11;;;;;;;29.83;13.30;;;;;;;;;;4984641;28;20449;-76
2023/12/19 20:10:37;;;;;;;25.73;13.83;;;;;;;;;;4985751;28;20458;-77
2023/12/19 20:13:03;;;;;;;27.13;13.00;;;;;;;;;;4982706;28;20415;-78
2023/12/19 20:15:29;;;;;;;31.37;15.23;;;;;;;;;;4985406;28;20443;-77
2023/12/19 20:17:55;;;;;;;26.73;13.10;;;;;;;;;;4986389;28;20414;-74